ATW weather

Appleton International Airport
Appleton, Wisconsin, United States

Public forecast

Using degrees Fahrenheit for public forecast. Weather courtesy of forecast.io.

METAR (pilot weather report)

Retrieved 2019/05/20 01:45 UTC (28 minutes ago):

KATW 200145Z 33007KT 10SM BKN007 07/07 A2970

TAF (pilot weather forecast)

Forecast is more than 12 hours old.

Retrieved 2019/05/19 00:33 UTC (1 day ago):

TAF KATW 192331Z 2000/2024 31007KT 6SM -RADZ BR SCT004 OVC009 TEMPO 2000/2004 1 1/2SM -DZ BR BKN004 FM200400 31010G17KT P6SM -DZ OVC004 FM201000 31012G19KT P6SM BKN007 FM201200 32012G20KT P6SM BKN014 FM201500 34012G19KT P6SM BKN020 FM201700 35009KT P6SM SCT050